sensor_id;sensor_type;location;lat;lon;timestamp;temperature;humidity
39493;DHT22;25176;51.060;3.720;2023-09-19T00:01:33;17.00;92.00
39493;DHT22;25176;51.060;3.720;2023-09-19T00:03:58;17.00;91.90
39493;DHT22;25176;51.060;3.720;2023-09-19T00:06:24;17.00;92.10
39493;DHT22;25176;51.060;3.720;2023-09-19T00:08:54;17.00;92.10
39493;DHT22;25176;51.060;3.720;2023-09-19T00:11:20;17.00;91.90
39493;DHT22;25176;51.060;3.720;2023-09-19T00:13:47;17.10;92.00
39493;DHT22;25176;51.060;3.720;2023-09-19T00:16:15;17.00;92.30
39493;DHT22;25176;51.060;3.720;2023-09-19T00:18:40;17.00;92.30
39493;DHT22;25176;51.060;3.720;2023-09-19T00:21:06;17.10;92.40
39493;DHT22;25176;51.060;3.720;2023-09-19T00:23:32;17.00;92.40
39493;DHT22;25176;51.060;3.720;2023-09-19T00:25:58;17.00;92.40
39493;DHT22;25176;51.060;3.720;2023-09-19T00:28:24;17.00;92.50
39493;DHT22;25176;51.060;3.720;2023-09-19T00:30:49;17.00;92.50
39493;DHT22;25176;51.060;3.720;2023-09-19T00:33:15;16.90;92.80
39493;DHT22;25176;51.060;3.720;2023-09-19T00:36:14;16.90;92.60
39493;DHT22;25176;51.060;3.720;2023-09-19T00:38:33;16.90;92.70
39493;DHT22;25176;51.060;3.720;2023-09-19T00:40:58;16.80;92.60
39493;DHT22;25176;51.060;3.720;2023-09-19T00:43:25;16.80;92.80
39493;DHT22;25176;51.060;3.720;2023-09-19T00:45:53;16.70;92.80
39493;DHT22;25176;51.060;3.720;2023-09-19T00:48:20;16.80;93.10
39493;DHT22;25176;51.060;3.720;2023-09-19T00:50:46;16.80;92.90
39493;DHT22;25176;51.060;3.720;2023-09-19T00:53:13;16.80;93.00
39493;DHT22;25176;51.060;3.720;2023-09-19T00:55:39;16.90;93.00
39493;DHT22;25176;51.060;3.720;2023-09-19T00:58:08;16.90;92.90
39493;DHT22;25176;51.060;3.720;2023-09-19T01:00:35;16.90;92.90
39493;DHT22;25176;51.060;3.720;2023-09-19T01:03:01;16.90;92.80
39493;DHT22;25176;51.060;3.720;2023-09-19T01:05:27;17.00;93.00
39493;DHT22;25176;51.060;3.720;2023-09-19T01:07:53;17.00;92.90
39493;DHT22;25176;51.060;3.720;2023-09-19T01:10:18;17.00;92.90
39493;DHT22;25176;51.060;3.720;2023-09-19T01:13:03;17.00;93.20
39493;DHT22;25176;51.060;3.720;2023-09-19T01:26:30;16.80;93.70
39493;DHT22;25176;51.060;3.720;2023-09-19T01:31:28;16.80;94.00
39493;DHT22;25176;51.060;3.720;2023-09-19T01:33:59;16.70;94.20
39493;DHT22;25176;51.060;3.720;2023-09-19T01:36:26;16.70;94.40
39493;DHT22;25176;51.060;3.720;2023-09-19T01:38:51;16.70;94.50
39493;DHT22;25176;51.060;3.720;2023-09-19T01:41:20;16.80;94.50
39493;DHT22;25176;51.060;3.720;2023-09-19T01:43:48;16.90;94.30
39493;DHT22;25176;51.060;3.720;2023-09-19T01:46:18;16.90;94.40
39493;DHT22;25176;51.060;3.720;2023-09-19T01:48:58;16.90;94.20
39493;DHT22;25176;51.060;3.720;2023-09-19T01:51:37;16.90;94.60
39493;DHT22;25176;51.060;3.720;2023-09-19T01:54:08;16.80;94.60
39493;DHT22;25176;51.060;3.720;2023-09-19T01:56:40;16.70;94.70
39493;DHT22;25176;51.060;3.720;2023-09-19T01:59:13;16.70;94.90
39493;DHT22;25176;51.060;3.720;2023-09-19T02:01:39;16.70;95.00
39493;DHT22;25176;51.060;3.720;2023-09-19T02:04:04;16.70;95.30
39493;DHT22;25176;51.060;3.720;2023-09-19T02:06:30;16.80;95.20
39493;DHT22;25176;51.060;3.720;2023-09-19T02:08:56;16.90;95.00
39493;DHT22;25176;51.060;3.720;2023-09-19T02:11:22;16.80;94.90
39493;DHT22;25176;51.060;3.720;2023-09-19T02:13:48;16.80;95.00
39493;DHT22;25176;51.060;3.720;2023-09-19T02:16:19;16.80;95.10
39493;DHT22;25176;51.060;3.720;2023-09-19T02:18:49;16.70;95.10
39493;DHT22;25176;51.060;3.720;2023-09-19T02:21:17;16.80;95.20
39493;DHT22;25176;51.060;3.720;2023-09-19T02:23:46;16.80;95.20
39493;DHT22;25176;51.060;3.720;2023-09-19T02:26:12;16.80;95.10
39493;DHT22;25176;51.060;3.720;2023-09-19T02:28:39;16.80;95.10
39493;DHT22;25176;51.060;3.720;2023-09-19T02:31:04;16.80;95.30
39493;DHT22;25176;51.060;3.720;2023-09-19T02:33:33;16.80;95.10
39493;DHT22;25176;51.060;3.720;2023-09-19T02:35:58;16.80;95.20
39493;DHT22;25176;51.060;3.720;2023-09-19T02:38:25;16.80;95.20
39493;DHT22;25176;51.060;3.720;2023-09-19T02:40:51;16.80;95.30
39493;DHT22;25176;51.060;3.720;2023-09-19T02:43:17;16.80;95.40
39493;DHT22;25176;51.060;3.720;2023-09-19T02:45:42;16.70;95.50
39493;DHT22;25176;51.060;3.720;2023-09-19T02:48:08;16.70;95.70
39493;DHT22;25176;51.060;3.720;2023-09-19T02:50:33;16.80;95.70
39493;DHT22;25176;51.060;3.720;2023-09-19T02:52:59;16.80;95.90
39493;DHT22;25176;51.060;3.720;2023-09-19T02:55:24;16.90;95.80
39493;DHT22;25176;51.060;3.720;2023-09-19T02:57:53;16.80;96.20
39493;DHT22;25176;51.060;3.720;2023-09-19T03:00:22;16.80;96.60
39493;DHT22;25176;51.060;3.720;2023-09-19T03:02:48;16.80;96.70
39493;DHT22;25176;51.060;3.720;2023-09-19T03:05:14;16.90;96.80
39493;DHT22;25176;51.060;3.720;2023-09-19T03:07:39;16.80;97.00
39493;DHT22;25176;51.060;3.720;2023-09-19T03:10:06;16.80;97.20
39493;DHT22;25176;51.060;3.720;2023-09-19T03:12:31;16.80;97.20
39493;DHT22;25176;51.060;3.720;2023-09-19T03:14:57;16.80;97.40
39493;DHT22;25176;51.060;3.720;2023-09-19T03:17:22;16.80;97.40
39493;DHT22;25176;51.060;3.720;2023-09-19T03:19:48;16.80;97.70
39493;DHT22;25176;51.060;3.720;2023-09-19T03:22:14;16.80;97.80
39493;DHT22;25176;51.060;3.720;2023-09-19T03:24:39;16.90;98.00
39493;DHT22;25176;51.060;3.720;2023-09-19T03:27:05;16.90;98.10
39493;DHT22;25176;51.060;3.720;2023-09-19T03:29:31;16.90;98.30
39493;DHT22;25176;51.060;3.720;2023-09-19T03:31:56;16.80;98.80
39493;DHT22;25176;51.060;3.720;2023-09-19T03:34:22;16.90;99.10
39493;DHT22;25176;51.060;3.720;2023-09-19T03:36:47;16.90;99.10
39493;DHT22;25176;51.060;3.720;2023-09-19T03:39:13;17.00;98.90
39493;DHT22;25176;51.060;3.720;2023-09-19T03:41:41;16.90;99.00
39493;DHT22;25176;51.060;3.720;2023-09-19T03:44:07;16.80;99.20
39493;DHT22;25176;51.060;3.720;2023-09-19T03:46:32;16.60;99.20
39493;DHT22;25176;51.060;3.720;2023-09-19T03:48:58;16.60;99.30
39493;DHT22;25176;51.060;3.720;2023-09-19T03:51:23;16.60;99.50
39493;DHT22;25176;51.060;3.720;2023-09-19T03:53:49;16.60;99.20
39493;DHT22;25176;51.060;3.720;2023-09-19T03:56:15;16.50;99.40
39493;DHT22;25176;51.060;3.720;2023-09-19T03:58:41;16.30;99.50
39493;DHT22;25176;51.060;3.720;2023-09-19T04:01:06;16.40;99.60
39493;DHT22;25176;51.060;3.720;2023-09-19T04:03:34;16.40;99.80
39493;DHT22;25176;51.060;3.720;2023-09-19T04:06:11;16.30;99.70
39493;DHT22;25176;51.060;3.720;2023-09-19T04:08:37;16.40;99.90
39493;DHT22;25176;51.060;3.720;2023-09-19T04:11:02;16.40;99.60
39493;DHT22;25176;51.060;3.720;2023-09-19T04:13:28;16.40;99.70
39493;DHT22;25176;51.060;3.720;2023-09-19T04:15:54;16.40;99.50
39493;DHT22;25176;51.060;3.720;2023-09-19T04:18:19;16.30;99.60
39493;DHT22;25176;51.060;3.720;2023-09-19T04:20:52;16.20;99.90
39493;DHT22;25176;51.060;3.720;2023-09-19T04:23:18;16.20;99.90
39493;DHT22;25176;51.060;3.720;2023-09-19T04:25:46;16.20;99.90
39493;DHT22;25176;51.060;3.720;2023-09-19T04:28:12;16.20;99.90
39493;DHT22;25176;51.060;3.720;2023-09-19T04:30:37;16.20;99.90
39493;DHT22;25176;51.060;3.720;2023-09-19T04:33:06;16.10;99.90
39493;DHT22;25176;51.060;3.720;2023-09-19T04:35:31;16.10;99.90
39493;DHT22;25176;51.060;3.720;2023-09-19T04:37:57;16.20;99.90
39493;DHT22;25176;51.060;3.720;2023-09-19T04:40:23;16.10;99.90
39493;DHT22;25176;51.060;3.720;2023-09-19T04:42:55;16.20;99.90
39493;DHT22;25176;51.060;3.720;2023-09-19T04:45:25;16.20;99.90
39493;DHT22;25176;51.060;3.720;2023-09-19T04:47:51;16.20;99.90
39493;DHT22;25176;51.060;3.720;2023-09-19T04:50:17;16.20;99.90
39493;DHT22;25176;51.060;3.720;2023-09-19T04:52:43;16.10;99.90
39493;DHT22;25176;51.060;3.720;2023-09-19T04:55:10;16.10;99.90
39493;DHT22;25176;51.060;3.720;2023-09-19T04:57:36;16.10;99.90
39493;DHT22;25176;51.060;3.720;2023-09-19T05:00:02;16.10;99.90
39493;DHT22;25176;51.060;3.720;2023-09-19T05:02:32;16.10;99.90
39493;DHT22;25176;51.060;3.720;2023-09-19T05:04:57;16.20;99.90
39493;DHT22;25176;51.060;3.720;2023-09-19T05:07:25;16.20;99.90
39493;DHT22;25176;51.060;3.720;2023-09-19T05:09:51;16.20;99.90
39493;DHT22;25176;51.060;3.720;2023-09-19T05:12:17;16.20;99.90
39493;DHT22;25176;51.060;3.720;2023-09-19T05:14:45;16.30;99.90
39493;DHT22;25176;51.060;3.720;2023-09-19T05:17:10;16.20;99.90
39493;DHT22;25176;51.060;3.720;2023-09-19T05:19:36;16.20;99.90
39493;DHT22;25176;51.060;3.720;2023-09-19T05:22:02;16.20;99.90
39493;DHT22;25176;51.060;3.720;2023-09-19T05:24:29;16.20;99.90
39493;DHT22;25176;51.060;3.720;2023-09-19T05:26:55;16.10;99.90
39493;DHT22;25176;51.060;3.720;2023-09-19T05:29:22;16.10;99.90
39493;DHT22;25176;51.060;3.720;2023-09-19T05:31:47;16.00;99.90
39493;DHT22;25176;51.060;3.720;2023-09-19T05:34:15;16.00;99.90
39493;DHT22;25176;51.060;3.720;2023-09-19T05:36:40;16.10;99.90
39493;DHT22;25176;51.060;3.720;2023-09-19T05:39:07;16.10;99.90
39493;DHT22;25176;51.060;3.720;2023-09-19T05:41:35;16.10;99.90
39493;DHT22;25176;51.060;3.720;2023-09-19T05:44:02;16.10;99.90
39493;DHT22;25176;51.060;3.720;2023-09-19T05:46:28;16.10;99.90
39493;DHT22;25176;51.060;3.720;2023-09-19T05:48:55;16.00;99.90
39493;DHT22;25176;51.060;3.720;2023-09-19T05:51:22;15.90;99.90
39493;DHT22;25176;51.060;3.720;2023-09-19T05:53:48;16.00;99.90
39493;DHT22;25176;51.060;3.720;2023-09-19T05:56:14;16.20;99.90
39493;DHT22;25176;51.060;3.720;2023-09-19T05:58:40;16.30;99.90
39493;DHT22;25176;51.060;3.720;2023-09-19T06:01:08;16.50;99.90
39493;DHT22;25176;51.060;3.720;2023-09-19T06:03:35;16.50;99.90
39493;DHT22;25176;51.060;3.720;2023-09-19T06:06:04;16.60;99.90
39493;DHT22;25176;51.060;3.720;2023-09-19T06:08:43;16.60;99.90
39493;DHT22;25176;51.060;3.720;2023-09-19T06:11:10;16.50;99.90
39493;DHT22;25176;51.060;3.720;2023-09-19T06:13:36;16.50;99.90
39493;DHT22;25176;51.060;3.720;2023-09-19T06:16:04;16.50;99.90
39493;DHT22;25176;51.060;3.720;2023-09-19T06:18:31;16.50;99.90
39493;DHT22;25176;51.060;3.720;2023-09-19T06:21:02;16.70;99.90
39493;DHT22;25176;51.060;3.720;2023-09-19T06:23:33;16.80;99.90
39493;DHT22;25176;51.060;3.720;2023-09-19T06:25:59;16.70;99.90
39493;DHT22;25176;51.060;3.720;2023-09-19T06:28:25;16.70;99.90
39493;DHT22;25176;51.060;3.720;2023-09-19T06:30:56;16.70;99.90
39493;DHT22;25176;51.060;3.720;2023-09-19T06:33:22;16.80;99.90
39493;DHT22;25176;51.060;3.720;2023-09-19T06:35:48;16.70;99.90
39493;DHT22;25176;51.060;3.720;2023-09-19T06:38:14;16.50;99.90
39493;DHT22;25176;51.060;3.720;2023-09-19T06:40:41;16.60;99.90
39493;DHT22;25176;51.060;3.720;2023-09-19T06:43:09;16.50;99.90
39493;DHT22;25176;51.060;3.720;2023-09-19T06:45:35;16.70;99.90
39493;DHT22;25176;51.060;3.720;2023-09-19T06:48:01;17.00;99.90
39493;DHT22;25176;51.060;3.720;2023-09-19T06:50:28;16.90;99.90
39493;DHT22;25176;51.060;3.720;2023-09-19T06:52:56;16.90;99.90
39493;DHT22;25176;51.060;3.720;2023-09-19T06:55:24;16.90;99.90
39493;DHT22;25176;51.060;3.720;2023-09-19T06:57:54;17.00;99.90
39493;DHT22;25176;51.060;3.720;2023-09-19T07:00:20;17.10;99.90
39493;DHT22;25176;51.060;3.720;2023-09-19T07:02:59;17.20;99.90
39493;DHT22;25176;51.060;3.720;2023-09-19T07:05:30;17.30;99.90
39493;DHT22;25176;51.060;3.720;2023-09-19T07:07:56;17.50;99.90
39493;DHT22;25176;51.060;3.720;2023-09-19T07:10:24;17.50;99.70
39493;DHT22;25176;51.060;3.720;2023-09-19T07:12:55;17.50;99.70
39493;DHT22;25176;51.060;3.720;2023-09-19T07:15:20;17.80;99.40
39493;DHT22;25176;51.060;3.720;2023-09-19T07:17:48;17.90;99.00
39493;DHT22;25176;51.060;3.720;2023-09-19T07:20:15;18.00;99.10
39493;DHT22;25176;51.060;3.720;2023-09-19T07:22:41;17.90;98.70
39493;DHT22;25176;51.060;3.720;2023-09-19T07:25:07;17.70;99.00
39493;DHT22;25176;51.060;3.720;2023-09-19T07:27:33;17.80;99.00
39493;DHT22;25176;51.060;3.720;2023-09-19T07:29:59;17.90;99.10
39493;DHT22;25176;51.060;3.720;2023-09-19T07:32:24;18.10;98.60
39493;DHT22;25176;51.060;3.720;2023-09-19T07:34:50;18.20;98.50
39493;DHT22;25176;51.060;3.720;2023-09-19T07:37:15;18.30;98.20
39493;DHT22;25176;51.060;3.720;2023-09-19T07:39:41;18.60;97.90
39493;DHT22;25176;51.060;3.720;2023-09-19T07:42:07;18.90;97.30
39493;DHT22;25176;51.060;3.720;2023-09-19T07:44:34;18.80;97.30
39493;DHT22;25176;51.060;3.720;2023-09-19T07:47:00;19.20;96.90
39493;DHT22;25176;51.060;3.720;2023-09-19T07:49:28;20.00;95.50
39493;DHT22;25176;51.060;3.720;2023-09-19T07:51:54;20.50;95.00
39493;DHT22;25176;51.060;3.720;2023-09-19T07:54:20;21.70;93.60
39493;DHT22;25176;51.060;3.720;2023-09-19T07:56:46;22.20;92.30
39493;DHT22;25176;51.060;3.720;2023-09-19T07:59:12;22.60;91.50
39493;DHT22;25176;51.060;3.720;2023-09-19T08:01:39;22.40;91.10
39493;DHT22;25176;51.060;3.720;2023-09-19T08:04:08;22.40;91.00
39493;DHT22;25176;51.060;3.720;2023-09-19T08:06:34;22.70;90.50
39493;DHT22;25176;51.060;3.720;2023-09-19T08:09:00;22.80;90.20
39493;DHT22;25176;51.060;3.720;2023-09-19T08:11:32;22.70;90.00
39493;DHT22;25176;51.060;3.720;2023-09-19T08:13:58;22.80;90.10
39493;DHT22;25176;51.060;3.720;2023-09-19T08:16:24;23.10;88.90
39493;DHT22;25176;51.060;3.720;2023-09-19T08:18:51;23.00;88.50
39493;DHT22;25176;51.060;3.720;2023-09-19T08:21:20;23.10;87.70
39493;DHT22;25176;51.060;3.720;2023-09-19T08:23:46;23.90;86.70
39493;DHT22;25176;51.060;3.720;2023-09-19T08:26:11;24.20;84.90
39493;DHT22;25176;51.060;3.720;2023-09-19T08:28:37;24.30;83.70
39493;DHT22;25176;51.060;3.720;2023-09-19T08:31:06;23.50;85.30
39493;DHT22;25176;51.060;3.720;2023-09-19T08:33:32;23.40;86.40
39493;DHT22;25176;51.060;3.720;2023-09-19T08:35:59;23.90;85.20
39493;DHT22;25176;51.060;3.720;2023-09-19T08:38:24;23.70;84.50
39493;DHT22;25176;51.060;3.720;2023-09-19T08:40:58;23.10;86.00
39493;DHT22;25176;51.060;3.720;2023-09-19T08:43:26;23.20;84.60
39493;DHT22;25176;51.060;3.720;2023-09-19T08:45:58;23.00;85.80
39493;DHT22;25176;51.060;3.720;2023-09-19T08:48:28;22.70;86.10
39493;DHT22;25176;51.060;3.720;2023-09-19T08:51:06;22.70;86.00
39493;DHT22;25176;51.060;3.720;2023-09-19T08:53:42;23.10;84.40
39493;DHT22;25176;51.060;3.720;2023-09-19T08:56:08;22.80;85.50
39493;DHT22;25176;51.060;3.720;2023-09-19T08:58:41;23.50;83.10
39493;DHT22;25176;51.060;3.720;2023-09-19T09:01:08;23.30;84.10
39493;DHT22;25176;51.060;3.720;2023-09-19T09:03:35;23.90;82.60
39493;DHT22;25176;51.060;3.720;2023-09-19T09:06:02;23.40;83.90
39493;DHT22;25176;51.060;3.720;2023-09-19T09:08:30;23.20;84.00
39493;DHT22;25176;51.060;3.720;2023-09-19T09:10:55;23.40;82.90
39493;DHT22;25176;51.060;3.720;2023-09-19T09:13:22;23.20;83.10
39493;DHT22;25176;51.060;3.720;2023-09-19T09:15:51;23.00;83.10
39493;DHT22;25176;51.060;3.720;2023-09-19T09:18:17;22.50;84.70
39493;DHT22;25176;51.060;3.720;2023-09-19T09:20:43;22.30;85.50
39493;DHT22;25176;51.060;3.720;2023-09-19T09:23:10;22.80;84.90
39493;DHT22;25176;51.060;3.720;2023-09-19T09:28:22;22.70;84.50
39493;DHT22;25176;51.060;3.720;2023-09-19T09:30:48;22.90;83.80
39493;DHT22;25176;51.060;3.720;2023-09-19T09:33:14;23.30;84.10
39493;DHT22;25176;51.060;3.720;2023-09-19T09:35:50;23.90;83.00
39493;DHT22;25176;51.060;3.720;2023-09-19T09:38:18;25.50;79.70
39493;DHT22;25176;51.060;3.720;2023-09-19T09:40:50;26.50;76.30
39493;DHT22;25176;51.060;3.720;2023-09-19T09:43:35;27.70;74.10
39493;DHT22;25176;51.060;3.720;2023-09-19T09:51:33;30.40;66.50
39493;DHT22;25176;51.060;3.720;2023-09-19T09:54:19;31.60;63.30
39493;DHT22;25176;51.060;3.720;2023-09-19T09:56:54;30.20;65.90
39493;DHT22;25176;51.060;3.720;2023-09-19T09:59:23;32.20;62.60
39493;DHT22;25176;51.060;3.720;2023-09-19T10:02:09;32.40;61.60
39493;DHT22;25176;51.060;3.720;2023-09-19T10:04:39;30.90;62.30
39493;DHT22;25176;51.060;3.720;2023-09-19T10:07:30;30.90;63.30
39493;DHT22;25176;51.060;3.720;2023-09-19T10:10:03;30.60;61.70
39493;DHT22;25176;51.060;3.720;2023-09-19T10:12:42;29.00;64.00
39493;DHT22;25176;51.060;3.720;2023-09-19T10:15:09;27.90;65.40
39493;DHT22;25176;51.060;3.720;2023-09-19T10:17:36;27.20;66.50
39493;DHT22;25176;51.060;3.720;2023-09-19T10:20:02;26.50;68.60
39493;DHT22;25176;51.060;3.720;2023-09-19T10:22:38;26.30;68.80
39493;DHT22;25176;51.060;3.720;2023-09-19T10:25:07;26.00;68.80
39493;DHT22;25176;51.060;3.720;2023-09-19T10:27:33;26.50;69.00
39493;DHT22;25176;51.060;3.720;2023-09-19T10:30:04;26.40;69.00
39493;DHT22;25176;51.060;3.720;2023-09-19T10:32:32;26.10;69.00
39493;DHT22;25176;51.060;3.720;2023-09-19T10:35:00;25.70;70.40
39493;DHT22;25176;51.060;3.720;2023-09-19T10:37:26;25.40;70.60
39493;DHT22;25176;51.060;3.720;2023-09-19T10:39:53;25.10;70.80
39493;DHT22;25176;51.060;3.720;2023-09-19T10:42:21;24.70;73.00
39493;DHT22;25176;51.060;3.720;2023-09-19T10:44:53;24.20;73.50
39493;DHT22;25176;51.060;3.720;2023-09-19T10:47:20;24.20;74.50
39493;DHT22;25176;51.060;3.720;2023-09-19T10:49:50;24.20;73.70
39493;DHT22;25176;51.060;3.720;2023-09-19T10:52:17;23.90;74.90
39493;DHT22;25176;51.060;3.720;2023-09-19T10:54:48;23.80;75.90
39493;DHT22;25176;51.060;3.720;2023-09-19T10:57:20;23.40;75.90
39493;DHT22;25176;51.060;3.720;2023-09-19T11:00:02;23.00;77.20
39493;DHT22;25176;51.060;3.720;2023-09-19T11:03:16;23.00;77.10
39493;DHT22;25176;51.060;3.720;2023-09-19T11:05:32;23.40;76.20
39493;DHT22;25176;51.060;3.720;2023-09-19T11:07:59;23.40;75.90
39493;DHT22;25176;51.060;3.720;2023-09-19T11:10:46;23.60;75.30
39493;DHT22;25176;51.060;3.720;2023-09-19T11:13:31;23.40;75.80
39493;DHT22;25176;51.060;3.720;2023-09-19T11:24:38;23.20;76.70
39493;DHT22;25176;51.060;3.720;2023-09-19T11:26:48;23.30;76.50
39493;DHT22;25176;51.060;3.720;2023-09-19T11:29:30;23.10;77.10
39493;DHT22;25176;51.060;3.720;2023-09-19T11:31:56;23.10;77.70
39493;DHT22;25176;51.060;3.720;2023-09-19T11:39:39;23.30;76.40
39493;DHT22;25176;51.060;3.720;2023-09-19T11:44:52;23.50;75.90
39493;DHT22;25176;51.060;3.720;2023-09-19T11:47:21;23.20;76.30
39493;DHT22;25176;51.060;3.720;2023-09-19T11:49:48;23.20;77.10
39493;DHT22;25176;51.060;3.720;2023-09-19T11:52:16;23.00;77.50
39493;DHT22;25176;51.060;3.720;2023-09-19T11:54:47;22.90;76.90
39493;DHT22;25176;51.060;3.720;2023-09-19T11:57:21;22.80;78.00
39493;DHT22;25176;51.060;3.720;2023-09-19T11:59:47;23.00;78.40
39493;DHT22;25176;51.060;3.720;2023-09-19T12:02:15;22.90;78.20
39493;DHT22;25176;51.060;3.720;2023-09-19T12:04:46;23.20;77.70
39493;DHT22;25176;51.060;3.720;2023-09-19T12:07:14;23.00;78.00
39493;DHT22;25176;51.060;3.720;2023-09-19T12:10:03;22.70;78.30
39493;DHT22;25176;51.060;3.720;2023-09-19T12:12:29;22.60;79.00
39493;DHT22;25176;51.060;3.720;2023-09-19T12:14:55;22.60;79.30
39493;DHT22;25176;51.060;3.720;2023-09-19T12:17:34;22.60;79.00
39493;DHT22;25176;51.060;3.720;2023-09-19T12:20:01;22.70;79.20
39493;DHT22;25176;51.060;3.720;2023-09-19T12:22:44;22.90;79.20
39493;DHT22;25176;51.060;3.720;2023-09-19T12:25:10;23.20;78.20
39493;DHT22;25176;51.060;3.720;2023-09-19T12:27:49;23.10;78.00
39493;DHT22;25176;51.060;3.720;2023-09-19T12:30:18;23.10;78.60
39493;DHT22;25176;51.060;3.720;2023-09-19T12:32:46;23.20;77.80
39493;DHT22;25176;51.060;3.720;2023-09-19T12:35:32;23.10;77.80
39493;DHT22;25176;51.060;3.720;2023-09-19T12:38:01;22.80;78.20
39493;DHT22;25176;51.060;3.720;2023-09-19T12:40:28;22.70;79.00
39493;DHT22;25176;51.060;3.720;2023-09-19T12:42:55;22.90;78.80
39493;DHT22;25176;51.060;3.720;2023-09-19T12:45:21;22.80;79.20
39493;DHT22;25176;51.060;3.720;2023-09-19T12:50:33;23.00;78.20
39493;DHT22;25176;51.060;3.720;2023-09-19T12:52:58;22.80;78.70
39493;DHT22;25176;51.060;3.720;2023-09-19T12:55:26;22.80;78.80
39493;DHT22;25176;51.060;3.720;2023-09-19T13:00:37;22.90;78.80
39493;DHT22;25176;51.060;3.720;2023-09-19T13:08:20;22.70;79.00
39493;DHT22;25176;51.060;3.720;2023-09-19T13:13:27;22.70;79.00
39493;DHT22;25176;51.060;3.720;2023-09-19T13:15:53;22.80;78.80
39493;DHT22;25176;51.060;3.720;2023-09-19T13:18:19;22.80;78.40
39493;DHT22;25176;51.060;3.720;2023-09-19T13:21:05;22.80;78.20
39493;DHT22;25176;51.060;3.720;2023-09-19T13:23:30;22.80;78.70
39493;DHT22;25176;51.060;3.720;2023-09-19T13:25:56;22.80;78.70
39493;DHT22;25176;51.060;3.720;2023-09-19T13:28:22;22.80;79.70
39493;DHT22;25176;51.060;3.720;2023-09-19T13:30:48;23.00;79.40
39493;DHT22;25176;51.060;3.720;2023-09-19T13:33:13;23.00;78.80
39493;DHT22;25176;51.060;3.720;2023-09-19T13:35:46;22.90;79.10
39493;DHT22;25176;51.060;3.720;2023-09-19T13:38:13;22.80;79.60
39493;DHT22;25176;51.060;3.720;2023-09-19T13:40:39;22.80;79.50
39493;DHT22;25176;51.060;3.720;2023-09-19T13:43:07;22.80;80.00
39493;DHT22;25176;51.060;3.720;2023-09-19T13:45:36;22.90;80.00
39493;DHT22;25176;51.060;3.720;2023-09-19T13:48:02;23.10;79.60
39493;DHT22;25176;51.060;3.720;2023-09-19T13:50:28;23.00;79.70
39493;DHT22;25176;51.060;3.720;2023-09-19T13:52:55;22.70;80.10
39493;DHT22;25176;51.060;3.720;2023-09-19T13:55:20;22.50;80.20
39493;DHT22;25176;51.060;3.720;2023-09-19T13:57:49;22.40;80.60
39493;DHT22;25176;51.060;3.720;2023-09-19T14:00:21;22.30;81.00
39493;DHT22;25176;51.060;3.720;2023-09-19T14:02:48;22.30;80.40
39493;DHT22;25176;51.060;3.720;2023-09-19T14:05:14;22.40;79.80
39493;DHT22;25176;51.060;3.720;2023-09-19T14:07:45;22.40;79.70
39493;DHT22;25176;51.060;3.720;2023-09-19T14:10:11;22.40;79.80
39493;DHT22;25176;51.060;3.720;2023-09-19T14:12:37;22.40;79.80
39493;DHT22;25176;51.060;3.720;2023-09-19T14:15:04;22.30;80.40
39493;DHT22;25176;51.060;3.720;2023-09-19T14:17:29;22.30;80.70
39493;DHT22;25176;51.060;3.720;2023-09-19T14:19:55;22.40;80.40
39493;DHT22;25176;51.060;3.720;2023-09-19T14:22:21;22.40;80.30
39493;DHT22;25176;51.060;3.720;2023-09-19T14:24:47;22.10;80.30
39493;DHT22;25176;51.060;3.720;2023-09-19T14:27:13;22.00;80.80
39493;DHT22;25176;51.060;3.720;2023-09-19T14:29:38;21.80;81.90
39493;DHT22;25176;51.060;3.720;2023-09-19T14:32:04;21.80;82.20
39493;DHT22;25176;51.060;3.720;2023-09-19T14:34:30;21.70;82.40
39493;DHT22;25176;51.060;3.720;2023-09-19T14:36:56;21.70;82.70
39493;DHT22;25176;51.060;3.720;2023-09-19T14:39:22;21.80;82.50
39493;DHT22;25176;51.060;3.720;2023-09-19T14:41:48;21.80;82.20
39493;DHT22;25176;51.060;3.720;2023-09-19T14:44:14;21.70;82.80
39493;DHT22;25176;51.060;3.720;2023-09-19T14:46:41;21.60;82.90
39493;DHT22;25176;51.060;3.720;2023-09-19T14:49:08;21.70;83.20
39493;DHT22;25176;51.060;3.720;2023-09-19T14:51:35;21.70;83.10
39493;DHT22;25176;51.060;3.720;2023-09-19T14:54:03;21.70;82.90
39493;DHT22;25176;51.060;3.720;2023-09-19T14:56:29;21.70;83.60
39493;DHT22;25176;51.060;3.720;2023-09-19T14:58:56;21.70;83.00
39493;DHT22;25176;51.060;3.720;2023-09-19T15:01:22;21.70;83.50
39493;DHT22;25176;51.060;3.720;2023-09-19T15:03:47;21.80;83.40
39493;DHT22;25176;51.060;3.720;2023-09-19T15:06:15;21.90;83.50
39493;DHT22;25176;51.060;3.720;2023-09-19T15:08:43;21.80;83.50
39493;DHT22;25176;51.060;3.720;2023-09-19T15:11:19;21.90;83.30
39493;DHT22;25176;51.060;3.720;2023-09-19T15:13:45;21.80;83.10
39493;DHT22;25176;51.060;3.720;2023-09-19T15:16:11;21.70;83.80
39493;DHT22;25176;51.060;3.720;2023-09-19T15:18:38;21.60;83.70
39493;DHT22;25176;51.060;3.720;2023-09-19T15:21:05;21.60;83.90
39493;DHT22;25176;51.060;3.720;2023-09-19T15:23:31;21.60;84.00
39493;DHT22;25176;51.060;3.720;2023-09-19T15:25:57;21.50;84.30
39493;DHT22;25176;51.060;3.720;2023-09-19T15:28:23;21.30;84.60
39493;DHT22;25176;51.060;3.720;2023-09-19T15:30:49;21.30;85.30
39493;DHT22;25176;51.060;3.720;2023-09-19T15:33:14;21.40;84.60
39493;DHT22;25176;51.060;3.720;2023-09-19T15:35:40;21.40;84.40
39493;DHT22;25176;51.060;3.720;2023-09-19T15:38:07;21.30;84.70
39493;DHT22;25176;51.060;3.720;2023-09-19T15:40:33;21.30;85.20
39493;DHT22;25176;51.060;3.720;2023-09-19T15:42:58;21.20;85.40
39493;DHT22;25176;51.060;3.720;2023-09-19T15:45:25;21.20;85.70
39493;DHT22;25176;51.060;3.720;2023-09-19T15:47:51;21.10;86.10
39493;DHT22;25176;51.060;3.720;2023-09-19T15:50:16;21.20;86.50
39493;DHT22;25176;51.060;3.720;2023-09-19T15:52:42;21.10;86.90
39493;DHT22;25176;51.060;3.720;2023-09-19T15:55:08;21.10;86.90
39493;DHT22;25176;51.060;3.720;2023-09-19T15:57:36;21.10;87.20
39493;DHT22;25176;51.060;3.720;2023-09-19T16:00:02;21.00;87.40
39493;DHT22;25176;51.060;3.720;2023-09-19T16:02:29;21.00;87.80
39493;DHT22;25176;51.060;3.720;2023-09-19T16:04:58;21.00;88.90
39493;DHT22;25176;51.060;3.720;2023-09-19T16:07:26;21.00;88.20
39493;DHT22;25176;51.060;3.720;2023-09-19T16:09:51;21.00;88.50
39493;DHT22;25176;51.060;3.720;2023-09-19T16:12:17;21.00;88.10
39493;DHT22;25176;51.060;3.720;2023-09-19T16:14:42;21.00;88.40
39493;DHT22;25176;51.060;3.720;2023-09-19T16:17:08;21.00;89.40
39493;DHT22;25176;51.060;3.720;2023-09-19T16:19:34;21.00;89.60
39493;DHT22;25176;51.060;3.720;2023-09-19T16:21:59;21.00;89.90
39493;DHT22;25176;51.060;3.720;2023-09-19T16:24:25;21.00;90.60
39493;DHT22;25176;51.060;3.720;2023-09-19T16:26:51;20.90;90.90